createdAt,value
2018-02-08T00:01:23.544Z,70.17
2018-02-08T00:03:56.702Z,69.47
2018-02-08T00:06:29.491Z,43.53
2018-02-08T00:09:01.941Z,51.90
2018-02-08T00:11:34.443Z,53.63
2018-02-08T00:14:07.800Z,52.33
2018-02-08T00:16:40.536Z,57.33
2018-02-08T00:19:13.977Z,54.10
2018-02-08T00:21:46.365Z,50.00
2018-02-08T00:24:18.841Z,60.47
2018-02-08T00:26:51.299Z,55.63
2018-02-08T00:29:24.651Z,59.07
2018-02-08T00:31:57.026Z,58.57
2018-02-08T00:34:30.527Z,62.80
2018-02-08T00:37:03.856Z,68.10
2018-02-08T00:39:36.466Z,61.57
2018-02-08T00:42:08.882Z,70.30
2018-02-08T00:44:41.603Z,51.57
2018-02-08T00:47:14.111Z,66.27
2018-02-08T00:49:46.597Z,60.30
2018-02-08T00:52:18.940Z,60.10
2018-02-08T00:54:51.370Z,59.57
2018-02-08T00:57:23.879Z,58.93
2018-02-08T00:59:56.456Z,58.00
2018-02-08T01:02:29.059Z,63.90
2018-02-08T01:05:02.649Z,60.77
2018-02-08T01:07:35.348Z,54.43
2018-02-08T01:10:08.707Z,62.20
2018-02-08T01:12:42.241Z,49.07
2018-02-08T01:15:15.325Z,63.80
2018-02-08T01:17:48.529Z,56.67
2018-02-08T01:20:22.211Z,58.10
2018-02-08T01:22:54.768Z,59.23
2018-02-08T01:25:27.941Z,68.90
2018-02-08T01:28:00.653Z,59.63
2018-02-08T01:30:33.234Z,68.90
2018-02-08T01:33:06.573Z,67.33
2018-02-08T01:35:38.986Z,57.83
2018-02-08T01:38:12.283Z,63.03
2018-02-08T01:40:44.755Z,62.23
2018-02-08T01:43:17.125Z,54.97
2018-02-08T01:45:49.589Z,65.00
2018-02-08T01:48:21.974Z,51.10
2018-02-08T01:50:54.358Z,51.07
2018-02-08T01:53:26.707Z,44.23
2018-02-08T01:55:59.257Z,48.77
2018-02-08T01:58:31.805Z,62.90
2018-02-08T02:01:04.460Z,53.00
2018-02-08T02:03:37.678Z,66.00
2018-02-08T02:06:10.499Z,77.47
2018-02-08T02:08:43.106Z,74.57
2018-02-08T02:11:15.703Z,61.20
2018-02-08T02:13:48.245Z,47.43
2018-02-08T02:16:21.426Z,56.90
2018-02-08T02:18:54.344Z,42.57
2018-02-08T02:21:27.108Z,58.80
2018-02-08T02:23:59.668Z,70.23
2018-02-08T02:26:32.236Z,54.33
2018-02-08T02:29:04.949Z,53.27
2018-02-08T02:31:37.608Z,49.37
2018-02-08T02:34:10.050Z,63.10
2018-02-08T02:36:42.646Z,76.87
2018-02-08T02:39:15.955Z,67.13
2018-02-08T02:41:48.659Z,66.93
2018-02-08T02:44:21.074Z,71.83
2018-02-08T02:46:53.574Z,67.93
2018-02-08T02:49:25.957Z,57.53
2018-02-08T02:51:58.501Z,61.00
2018-02-08T02:54:31.745Z,72.30
2018-02-08T02:57:05.360Z,70.10
2018-02-08T02:59:38.147Z,70.23
2018-02-08T03:02:10.680Z,65.67
2018-02-08T03:04:43.149Z,59.20
2018-02-08T03:07:15.720Z,67.50
2018-02-08T03:09:48.161Z,74.20
2018-02-08T03:12:21.480Z,60.17
2018-02-08T03:14:55.011Z,69.23
2018-02-08T03:17:27.745Z,64.80
2018-02-08T03:20:00.480Z,69.63
2018-02-08T03:22:33.547Z,66.47
2018-02-08T03:25:07.147Z,72.07
2018-02-08T03:27:40.281Z,59.47
2018-02-08T03:30:12.744Z,55.07
2018-02-08T03:32:45.355Z,65.23
2018-02-08T03:35:17.893Z,68.70
2018-02-08T03:37:51.256Z,55.97
2018-02-08T03:40:24.140Z,60.47
2018-02-08T03:42:57.442Z,61.17
2018-02-08T03:45:30.289Z,64.37
2018-02-08T03:48:04.422Z,62.50
2018-02-08T03:50:37.818Z,67.73
2018-02-08T03:53:10.461Z,62.67
2018-02-08T03:55:42.918Z,69.77
2018-02-08T03:58:15.410Z,53.13
2018-02-08T04:00:48.633Z,64.43
2018-02-08T04:03:21.369Z,53.77
2018-02-08T04:05:53.914Z,61.07
2018-02-08T04:08:26.434Z,58.03
2018-02-08T04:10:58.838Z,53.73
2018-02-08T04:13:31.504Z,58.40
2018-02-08T04:16:04.126Z,69.07
2018-02-08T04:18:36.640Z,55.53
2018-02-08T04:21:09.364Z,57.20
2018-02-08T04:23:41.852Z,71.10
2018-02-08T04:26:14.173Z,62.40
2018-02-08T04:28:47.565Z,63.77
2018-02-08T04:31:20.791Z,62.73
2018-02-08T04:33:53.462Z,51.03
2018-02-08T04:36:26.045Z,56.03
2018-02-08T04:39:17.457Z,59.57
2018-02-08T04:42:08.965Z,75.10
2018-02-08T04:48:06.768Z,56.10
2018-02-08T04:50:39.193Z,58.10
2018-02-08T04:53:11.595Z,63.53
2018-02-08T04:55:43.967Z,69.90
2018-02-08T04:58:17.239Z,60.43
2018-02-08T05:00:49.969Z,62.00
2018-02-08T05:03:22.614Z,49.70
2018-02-08T05:05:55.136Z,59.23
2018-02-08T05:08:27.723Z,55.00
2018-02-08T05:11:00.597Z,65.73
2018-02-08T05:13:33.069Z,64.30
2018-02-08T05:16:05.731Z,55.00
2018-02-08T05:18:38.932Z,55.00
2018-02-08T05:21:11.550Z,72.10
2018-02-08T05:23:43.940Z,71.80
2018-02-08T05:26:16.491Z,66.50
2018-02-08T05:28:49.968Z,67.97
2018-02-08T05:31:23.555Z,62.57
2018-02-08T05:33:56.600Z,56.03
2018-02-08T05:36:29.833Z,56.27
2018-02-08T05:39:04.367Z,60.87
2018-02-08T05:41:38.053Z,52.07
2018-02-08T05:44:10.660Z,69.27
2018-02-08T05:46:44.094Z,77.27
2018-02-08T05:49:16.672Z,68.97
2018-02-08T05:51:49.336Z,66.30
2018-02-08T05:54:21.750Z,73.93
2018-02-08T05:56:54.286Z,65.97
2018-02-08T05:59:26.726Z,61.43
2018-02-08T06:01:59.459Z,57.57
2018-02-08T06:04:31.871Z,84.10
2018-02-08T06:07:04.408Z,70.63
2018-02-08T06:09:36.734Z,79.03
2018-02-08T06:12:09.928Z,86.40
2018-02-08T06:14:44.134Z,76.87
2018-02-08T06:17:16.627Z,81.03
2018-02-08T06:19:49.103Z,70.37
2018-02-08T06:22:21.708Z,63.77
2018-02-08T06:24:54.116Z,59.53
2018-02-08T06:27:26.742Z,77.80
2018-02-08T06:29:59.335Z,69.33
2018-02-08T06:32:32.678Z,72.90
2018-02-08T06:35:05.608Z,56.37
2018-02-08T06:37:38.292Z,59.47
2018-02-08T06:40:10.601Z,60.23
2018-02-08T06:42:44.213Z,56.07
2018-02-08T06:45:16.787Z,76.60
2018-02-08T06:47:49.510Z,72.77
2018-02-08T06:50:22.011Z,53.90
2018-02-08T06:52:54.518Z,62.63
2018-02-08T06:55:26.868Z,61.40
2018-02-08T06:57:59.607Z,56.87
2018-02-08T07:00:32.844Z,65.60
2018-02-08T07:03:05.375Z,65.27
2018-02-08T07:05:38.006Z,64.03
2018-02-08T07:08:11.505Z,86.83
2018-02-08T07:10:44.068Z,65.77
2018-02-08T07:13:16.512Z,58.40
2018-02-08T07:15:49.914Z,62.53
2018-02-08T07:18:22.740Z,66.13
2018-02-08T07:20:55.288Z,74.80
2018-02-08T07:23:27.886Z,69.20
2018-02-08T07:26:00.297Z,82.80
2018-02-08T07:28:32.977Z,64.73
2018-02-08T07:31:06.178Z,65.83
2018-02-08T07:33:39.331Z,85.33
2018-02-08T07:36:12.704Z,79.20
2018-02-08T07:38:45.278Z,82.70
2018-02-08T07:41:18.639Z,65.20
2018-02-08T07:43:52.075Z,58.57
2018-02-08T07:46:24.947Z,61.20
2018-02-08T07:48:57.423Z,68.70
2018-02-08T07:51:29.797Z,79.03
2018-02-08T07:54:02.370Z,63.60
2018-02-08T07:56:35.660Z,67.70
2018-02-08T07:59:08.520Z,59.30
2018-02-08T08:01:40.877Z,59.73
2018-02-08T08:04:14.334Z,65.93
2018-02-08T08:06:47.586Z,58.00
2018-02-08T08:09:20.608Z,59.13
2018-02-08T08:11:52.953Z,53.77
2018-02-08T08:14:26.485Z,59.97
2018-02-08T08:16:59.685Z,66.97
2018-02-08T08:19:33.361Z,59.90
2018-02-08T08:22:06.809Z,70.43
2018-02-08T08:24:39.868Z,69.10
2018-02-08T08:27:12.390Z,68.80
2018-02-08T08:29:44.805Z,56.30
2018-02-08T08:32:17.325Z,63.13
2018-02-08T08:34:49.784Z,95.63
2018-02-08T08:37:22.098Z,58.43
2018-02-08T08:39:55.728Z,65.20
2018-02-08T08:42:29.943Z,60.10
2018-02-08T08:45:03.257Z,55.67
2018-02-08T08:47:36.583Z,61.27
2018-02-08T08:50:09.443Z,83.10
2018-02-08T08:52:41.822Z,76.53
2018-02-08T08:55:14.829Z,78.47
2018-02-08T08:57:47.917Z,51.33
2018-02-08T09:00:20.302Z,80.00
2018-02-08T09:02:52.714Z,78.77
2018-02-08T09:05:25.149Z,73.93
2018-02-08T09:07:57.904Z,66.23
2018-02-08T09:10:30.402Z,80.30
2018-02-08T09:13:03.065Z,68.57
2018-02-08T09:15:35.571Z,78.70
2018-02-08T09:18:08.306Z,65.07
2018-02-08T09:20:41.481Z,61.50
2018-02-08T09:23:14.465Z,77.90
2018-02-08T09:25:47.048Z,72.93
2018-02-08T09:28:20.414Z,58.67
2018-02-08T09:30:53.254Z,67.73
2018-02-08T09:33:25.877Z,79.90
2018-02-08T09:35:58.383Z,86.03
2018-02-08T09:38:32.284Z,79.20
2018-02-08T09:41:05.153Z,62.17
2018-02-08T09:43:37.769Z,80.03
2018-02-08T09:46:11.038Z,61.97
2018-02-08T09:48:43.823Z,63.67
2018-02-08T09:51:16.288Z,72.13
2018-02-08T09:53:48.969Z,69.93
2018-02-08T09:56:21.579Z,79.30
2018-02-08T09:58:54.817Z,60.80
2018-02-08T10:01:27.270Z,73.20
2018-02-08T10:03:59.774Z,73.87
2018-02-08T10:06:32.238Z,69.13
2018-02-08T10:09:05.531Z,77.13
2018-02-08T10:11:38.326Z,70.17
2018-02-08T10:14:11.701Z,58.17
2018-02-08T10:16:44.621Z,67.93
2018-02-08T10:19:16.940Z,74.10
2018-02-08T10:21:49.514Z,76.57
2018-02-08T10:24:21.840Z,66.73
2018-02-08T10:26:55.224Z,60.70
2018-02-08T10:29:27.733Z,54.10
2018-02-08T10:32:00.049Z,67.37
2018-02-08T10:34:32.540Z,71.30
2018-02-08T10:37:05.723Z,64.63
2018-02-08T10:39:38.447Z,78.97
2018-02-08T10:42:10.812Z,64.80
2018-02-08T10:44:43.526Z,80.03
2018-02-08T10:47:16.361Z,72.23
2018-02-08T10:49:48.758Z,60.90
2018-02-08T10:52:21.556Z,62.17
2018-02-08T10:54:54.938Z,60.00
2018-02-08T10:57:28.295Z,74.43
2018-02-08T11:00:00.862Z,77.57
2018-02-08T11:02:33.245Z,67.57
2018-02-08T11:05:05.668Z,76.53
2018-02-08T11:07:38.182Z,65.97
2018-02-08T11:10:10.752Z,87.20
2018-02-08T11:12:43.184Z,67.73
2018-02-08T11:15:15.878Z,70.67
2018-02-08T11:17:55.434Z,75.50
2018-02-08T11:20:28.034Z,79.10
2018-02-08T11:23:00.720Z,72.53
2018-02-08T11:25:34.046Z,68.13
2018-02-08T11:28:07.734Z,78.00
2018-02-08T11:30:40.298Z,60.70
2018-02-08T11:33:12.935Z,68.93
2018-02-08T11:35:46.212Z,77.97
2018-02-08T11:38:18.681Z,72.03
2018-02-08T11:40:51.402Z,59.40
2018-02-08T11:43:24.172Z,63.70
2018-02-08T11:45:57.361Z,63.33
2018-02-08T11:48:29.801Z,66.07
2018-02-08T11:51:03.085Z,61.07
2018-02-08T11:53:35.602Z,64.00
2018-02-08T11:56:08.755Z,70.83
2018-02-08T11:58:41.163Z,75.13
2018-02-08T12:01:14.441Z,74.93
2018-02-08T12:03:47.110Z,73.77
2018-02-08T12:06:19.607Z,76.77
2018-02-08T12:08:52.391Z,67.60
2018-02-08T12:11:24.887Z,62.90
2018-02-08T12:13:57.330Z,77.10
2018-02-08T12:16:29.621Z,68.17
2018-02-08T12:19:02.225Z,67.77
2018-02-08T12:21:35.415Z,65.80
2018-02-08T12:24:08.140Z,65.70
2018-02-08T12:26:40.470Z,77.57
2018-02-08T12:29:12.899Z,59.63
2018-02-08T12:31:46.205Z,66.33
2018-02-08T12:34:18.905Z,53.80
2018-02-08T12:36:51.570Z,71.87
2018-02-08T12:39:24.401Z,67.77
2018-02-08T12:41:57.557Z,64.87
2018-02-08T12:44:30.354Z,76.70
2018-02-08T12:47:02.814Z,64.97
2018-02-08T12:49:35.748Z,59.43
2018-02-08T12:52:08.141Z,64.13
2018-02-08T12:54:40.663Z,60.60
2018-02-08T12:57:13.919Z,60.83
2018-02-08T12:59:46.780Z,66.30
2018-02-08T13:02:19.991Z,74.07
2018-02-08T13:04:53.624Z,75.97
2018-02-08T13:07:26.400Z,66.17
2018-02-08T13:09:58.944Z,55.40
2018-02-08T13:12:32.155Z,74.93
2018-02-08T13:15:04.841Z,65.23
2018-02-08T13:17:37.361Z,54.33
2018-02-08T13:20:09.907Z,64.00
2018-02-08T13:22:42.397Z,73.13
2018-02-08T13:25:15.020Z,65.97
2018-02-08T13:27:47.405Z,66.17
2018-02-08T13:30:20.019Z,55.23
2018-02-08T13:32:53.166Z,57.93
2018-02-08T13:35:26.566Z,61.77
2018-02-08T13:37:59.260Z,69.23
2018-02-08T13:40:36.494Z,62.97
2018-02-08T13:43:09.957Z,69.87
2018-02-08T13:45:43.645Z,72.87
2018-02-08T13:48:22.313Z,55.67
2018-02-08T13:54:05.255Z,78.20
2018-02-08T13:56:44.649Z,68.63
2018-02-08T13:59:21.390Z,67.83
2018-02-08T14:01:54.417Z,58.33
2018-02-08T14:04:28.109Z,49.20
2018-02-08T14:07:01.107Z,61.30
2018-02-08T14:09:34.378Z,55.77
2018-02-08T14:12:06.985Z,62.23
2018-02-08T14:14:39.427Z,62.60
2018-02-08T14:17:12.009Z,53.37
2018-02-08T14:19:45.245Z,52.30
2018-02-08T14:22:18.163Z,66.07
2018-02-08T14:24:50.660Z,56.70
2018-02-08T14:27:23.085Z,83.30
2018-02-08T14:29:55.676Z,59.50
2018-02-08T14:32:28.852Z,69.17
2018-02-08T14:35:01.553Z,59.30
2018-02-08T14:37:34.211Z,58.90
2018-02-08T14:40:07.375Z,62.07
2018-02-08T14:42:40.230Z,61.37
2018-02-08T14:45:12.579Z,59.83
2018-02-08T14:47:45.887Z,64.27
2018-02-08T14:50:18.618Z,54.40
2018-02-08T14:52:51.022Z,57.67
2018-02-08T14:55:23.477Z,54.77
2018-02-08T14:57:55.853Z,52.37
2018-02-08T15:00:28.164Z,53.63
2018-02-08T15:03:01.501Z,42.47
2018-02-08T15:05:33.865Z,41.20
2018-02-08T15:08:06.284Z,63.40
2018-02-08T15:10:38.716Z,66.63
2018-02-08T15:13:11.475Z,50.33
2018-02-08T15:15:44.659Z,59.80
2018-02-08T15:18:18.439Z,70.57
2018-02-08T15:20:51.730Z,62.63
2018-02-08T15:23:24.288Z,56.80
2018-02-08T15:25:56.899Z,66.37
2018-02-08T15:28:29.389Z,75.70
2018-02-08T15:31:02.702Z,67.67
2018-02-08T15:33:36.246Z,68.10
2018-02-08T15:36:09.138Z,106.10
2018-02-08T15:38:41.535Z,81.57
2018-02-08T15:41:13.987Z,80.50
2018-02-08T15:43:46.639Z,86.90
2018-02-08T15:46:18.965Z,78.57
2018-02-08T15:48:51.676Z,75.50
2018-02-08T15:51:25.025Z,95.00
2018-02-08T15:53:57.762Z,102.13
2018-02-08T15:56:30.228Z,101.10
2018-02-08T15:59:02.925Z,87.20
2018-02-08T16:01:36.186Z,71.13
2018-02-08T16:04:08.660Z,80.93
2018-02-08T16:06:41.028Z,79.07
2018-02-08T16:09:14.289Z,90.00
2018-02-08T16:11:47.577Z,104.43
2018-02-08T16:14:20.306Z,74.50
2018-02-08T16:16:53.424Z,73.40
2018-02-08T16:19:27.093Z,94.50
2018-02-08T16:21:59.875Z,83.33
2018-02-08T16:24:32.569Z,96.80
2018-02-08T16:27:05.380Z,93.90
2018-02-08T16:29:38.103Z,99.13
2018-02-08T16:32:11.311Z,81.80
2018-02-08T16:34:43.978Z,73.83
2018-02-08T16:37:17.412Z,75.07
2018-02-08T16:39:50.817Z,92.57
2018-02-08T16:42:24.144Z,81.17
2018-02-08T16:44:56.785Z,96.13
2018-02-08T16:47:29.304Z,109.97
2018-02-08T16:50:02.220Z,113.13
2018-02-08T16:52:36.405Z,84.93
2018-02-08T16:55:09.334Z,74.17
2018-02-08T16:57:41.918Z,67.13
2018-02-08T17:00:14.401Z,64.63
2018-02-08T17:02:46.789Z,72.07
2018-02-08T17:05:20.171Z,87.80
2018-02-08T17:07:52.678Z,87.23
2018-02-08T17:10:25.324Z,84.97
2018-02-08T17:12:58.546Z,82.57
2018-02-08T17:15:30.925Z,77.33
2018-02-08T17:18:04.580Z,91.83
2018-02-08T17:20:37.366Z,97.60
2018-02-08T17:23:10.442Z,70.60
2018-02-08T17:25:43.393Z,83.57
2018-02-08T17:28:16.652Z,88.07
2018-02-08T17:30:49.326Z,66.13
2018-02-08T17:33:21.738Z,88.70
2018-02-08T17:35:55.265Z,88.50
2018-02-08T17:38:28.382Z,87.60
2018-02-08T17:41:01.013Z,82.30
2018-02-08T17:43:33.564Z,89.90
2018-02-08T17:46:05.993Z,79.40
2018-02-08T17:48:38.491Z,66.97
2018-02-08T17:51:11.074Z,92.00
2018-02-08T17:53:43.743Z,84.30
2018-02-08T17:56:16.264Z,85.90
2018-02-08T17:58:48.991Z,100.47
2018-02-08T18:01:21.739Z,104.10
2018-02-08T18:03:55.071Z,94.77
2018-02-08T18:06:27.646Z,85.80
2018-02-08T18:09:01.738Z,70.17
2018-02-08T18:11:35.333Z,90.03
2018-02-08T18:14:08.108Z,78.17
2018-02-08T18:16:41.248Z,91.67
2018-02-08T18:19:13.969Z,90.90
2018-02-08T18:21:47.074Z,80.53
2018-02-08T18:24:19.591Z,80.37
2018-02-08T18:26:52.203Z,90.07
2018-02-08T18:29:24.639Z,61.27
2018-02-08T18:31:57.400Z,91.20
2018-02-08T18:34:31.558Z,81.33
2018-02-08T18:37:04.306Z,82.87
2018-02-08T18:39:36.791Z,77.70
2018-02-08T18:42:09.347Z,89.57
2018-02-08T18:44:41.877Z,92.03
2018-02-08T18:47:14.901Z,96.37
2018-02-08T18:49:48.055Z,66.20
2018-02-08T18:52:20.772Z,83.87
2018-02-08T18:54:53.196Z,82.10
2018-02-08T18:57:25.651Z,92.57
2018-02-08T18:59:58.267Z,91.60
2018-02-08T19:02:30.864Z,92.33
2018-02-08T19:05:04.261Z,82.10
2018-02-08T19:07:36.901Z,69.43
2018-02-08T19:10:09.461Z,85.70
2018-02-08T19:12:43.102Z,75.53
2018-02-08T19:15:15.530Z,76.47
2018-02-08T19:17:47.970Z,80.20
2018-02-08T19:20:21.346Z,77.93
2018-02-08T19:22:54.156Z,59.47
2018-02-08T19:25:27.925Z,86.83
2018-02-08T19:28:01.767Z,74.30
2018-02-08T19:30:34.861Z,83.20
2018-02-08T19:33:08.687Z,96.63
2018-02-08T19:35:43.038Z,87.20
2018-02-08T19:38:17.353Z,95.77
2018-02-08T19:40:50.748Z,108.60
2018-02-08T19:43:25.370Z,95.33
2018-02-08T19:45:58.663Z,75.27
2018-02-08T19:48:33.227Z,100.53
2018-02-08T19:51:07.090Z,95.43
2018-02-08T19:53:41.669Z,78.20
2018-02-08T19:56:17.802Z,97.53
2018-02-08T19:58:53.472Z,101.53
2018-02-08T20:01:28.625Z,88.30
2018-02-08T20:04:04.617Z,94.90
2018-02-08T20:06:39.491Z,89.57
2018-02-08T20:09:14.948Z,87.27
2018-02-08T20:11:50.583Z,91.00
2018-02-08T20:14:31.771Z,82.57
2018-02-08T20:17:07.636Z,102.57
2018-02-08T20:19:43.619Z,110.07
2018-02-08T20:22:19.512Z,94.40
2018-02-08T20:24:55.317Z,77.77
2018-02-08T20:27:31.572Z,81.20
2018-02-08T20:30:07.651Z,102.73
2018-02-08T20:32:43.024Z,89.60
2018-02-08T20:35:18.617Z,87.20
2018-02-08T20:37:54.148Z,94.90
2018-02-08T20:40:29.436Z,84.57
2018-02-08T20:43:10.608Z,113.80
2018-02-08T20:45:46.531Z,81.60
2018-02-08T20:48:20.955Z,87.30
2018-02-08T20:50:56.133Z,95.33
2018-02-08T20:53:31.657Z,83.33
2018-02-08T20:56:06.963Z,120.03
2018-02-08T20:58:41.769Z,81.83
2018-02-08T21:01:17.760Z,68.63
2018-02-08T21:03:53.071Z,100.20
2018-02-08T21:06:29.122Z,88.17
2018-02-08T21:09:03.702Z,106.97
2018-02-08T21:11:37.796Z,108.73
2018-02-08T21:14:11.807Z,83.63
2018-02-08T21:16:48.569Z,94.33
2018-02-08T21:19:21.715Z,96.03
2018-02-08T21:21:54.718Z,94.83
2018-02-08T21:24:28.240Z,103.80
2018-02-08T21:27:01.351Z,111.70
2018-02-08T21:29:34.603Z,114.77
2018-02-08T21:32:08.334Z,76.77
2018-02-08T21:34:41.487Z,113.70
2018-02-08T21:37:14.754Z,79.83
2018-02-08T21:39:48.822Z,116.07
2018-02-08T21:42:21.642Z,84.33
2018-02-08T21:44:54.443Z,115.30
2018-02-08T21:47:28.318Z,98.10
2018-02-08T21:50:01.017Z,103.60
2018-02-08T21:52:33.962Z,103.23
2018-02-08T21:55:07.198Z,112.70
2018-02-08T21:57:39.624Z,131.50
2018-02-08T22:00:12.982Z,113.17
2018-02-08T22:02:45.727Z,107.00
2018-02-08T22:05:19.748Z,119.73
2018-02-08T22:07:53.290Z,129.13
2018-02-08T22:10:26.123Z,115.80
2018-02-08T22:12:59.691Z,101.80
2018-02-08T22:15:32.376Z,103.83
2018-02-08T22:18:04.809Z,110.13
2018-02-08T22:20:37.223Z,87.47
2018-02-08T22:23:10.061Z,106.37
2018-02-08T22:25:42.685Z,119.40
2018-02-08T22:28:15.228Z,97.10
2018-02-08T22:30:49.297Z,95.80
2018-02-08T22:33:22.219Z,112.40
2018-02-08T22:35:55.374Z,109.33
2018-02-08T22:38:27.919Z,98.07
2018-02-08T22:41:01.143Z,121.57
2018-02-08T22:43:34.270Z,114.73
2018-02-08T22:46:06.613Z,92.97
2018-02-08T22:48:39.229Z,135.70
2018-02-08T22:51:12.550Z,109.60
2018-02-08T22:53:44.968Z,103.07
2018-02-08T22:56:17.469Z,123.10
2018-02-08T22:58:50.689Z,109.87
2018-02-08T23:01:23.398Z,108.07
2018-02-08T23:03:56.204Z,108.30
2018-02-08T23:06:28.642Z,105.23
2018-02-08T23:09:02.725Z,130.30
2018-02-08T23:11:36.096Z,127.97
2018-02-08T23:14:09.181Z,103.90
2018-02-08T23:16:42.458Z,98.87
2018-02-08T23:19:15.069Z,92.63
2018-02-08T23:21:47.813Z,123.60
2018-02-08T23:24:21.214Z,136.40
2018-02-08T23:26:54.138Z,132.10
2018-02-08T23:29:26.631Z,106.53
2018-02-08T23:31:59.412Z,118.13
2018-02-08T23:34:32.923Z,104.97
2018-02-08T23:37:06.841Z,101.97
2018-02-08T23:39:39.313Z,117.57
2018-02-08T23:42:11.793Z,97.53
2018-02-08T23:44:44.427Z,106.80
2018-02-08T23:47:17.608Z,102.70
2018-02-08T23:49:50.427Z,98.40
2018-02-08T23:52:23.779Z,91.20
2018-02-08T23:54:56.592Z,110.03
2018-02-08T23:57:30.272Z,107.30
